Terminal Aerodrome Forecast
Issued by NWS Cleveland, OH

Home | Current Version | Previous Version | Text Only | Print | Product List | Glossary Off
Versions: 1 2 3 4 5 6 7 8 9 10 11 12 13 14 15 16 17 18 19

000
FTUS41 KCLE 231500 AAA
TAFERI
TAF AMD
KERI 231510Z 2315/2412 18012KT 6SM -SHRA OVC035
      TEMPO 2315/2318 5SM -SHRA BKN025
     FM231800 18012G22KT P6SM OVC035
     FM232100 15015G25KT P6SM OVC040
     FM240400 15025G35KT 5SM -SHRA OVC025
     FM240900 18025G35KT P6SM VCSH BKN025 OVC040=

USA.gov is the U.S. government's official web portal to all federal, state and local government web resources and services.